createdAt,value
2024-05-09T00:03:35.455Z,1028.9474371896183
2024-05-09T00:09:49.563Z,1028.9182479599617
2024-05-09T00:13:09.868Z,1028.9271927848636
2024-05-09T00:16:30.233Z,1028.8970687563299
2024-05-09T00:19:50.279Z,1028.9038061635677
2024-05-09T00:23:09.935Z,1028.9375989976388
2024-05-09T00:30:27.964Z,1028.8737131313967
2024-05-09T00:33:53.109Z,1028.8591435734604
2024-05-09T00:38:36.503Z,1028.8576373531082
2024-05-09T00:41:56.899Z,1028.8483830005655
2024-05-09T00:45:16.956Z,1028.82725258051
2024-05-09T00:50:19.036Z,1028.8137685676334
2024-05-09T00:53:43.182Z,1028.8199609659653
2024-05-09T00:57:03.118Z,1028.8334195646582
2024-05-09T01:00:31.495Z,1028.8156216908517
2024-05-09T01:03:58.578Z,1028.8118987252383
2024-05-09T01:08:19.233Z,1028.7913801376671
2024-05-09T01:11:44.494Z,1028.7193871335035
2024-05-09T01:15:04.834Z,1028.6657371679132
2024-05-09T01:18:24.823Z,1028.6605353390173
2024-05-09T01:25:03.508Z,1028.671319360249
2024-05-09T01:38:53.986Z,1028.6025323025692
2024-05-09T01:42:14.164Z,1028.5822758613747
2024-05-09T01:45:34.469Z,1028.585347580905
2024-05-09T01:48:54.316Z,1028.6207233746186
2024-05-09T01:52:14.434Z,1028.6456965013656
2024-05-09T01:55:44.570Z,1028.6470355687989
2024-05-09T01:59:04.448Z,1028.652357515099
2024-05-09T02:02:24.739Z,1028.6440228088625
2024-05-09T02:05:52.657Z,1028.6286449558866
2024-05-09T02:16:25.760Z,1028.6167739337793
2024-05-09T02:19:46.012Z,1028.613211521847
2024-05-09T02:23:27.089Z,1028.6185568747253
2024-05-09T02:26:48.618Z,1028.605900976303
2024-05-09T02:38:35.701Z,1028.6131066248583
2024-05-09T02:50:34.179Z,1028.61073557128
2024-05-09T02:56:57.726Z,1028.5784350049694
2024-05-09T03:01:51.182Z,1028.5373539733503
2024-05-09T03:05:11.653Z,1028.5299321187442
2024-05-09T03:08:31.799Z,1028.5294438399567
2024-05-09T03:11:52.946Z,1028.524067388238
2024-05-09T03:15:13.586Z,1028.5329133978914
2024-05-09T03:18:35.842Z,1028.5293424676338
2024-05-09T03:21:55.719Z,1028.5238982277283
2024-05-09T03:25:15.684Z,1028.5129123168172
2024-05-09T03:28:35.770Z,1028.4906630858397
2024-05-09T03:31:55.607Z,1028.4690475439488
2024-05-09T03:36:32.658Z,1028.4242119224177
2024-05-09T03:39:55.450Z,1028.4318770383475
2024-05-09T03:43:16.039Z,1028.4278910059693
2024-05-09T03:46:43.986Z,1028.4134472602589
2024-05-09T03:50:40.763Z,1028.4042638210722
2024-05-09T03:56:25.691Z,1028.3949806123874
2024-05-09T03:59:45.750Z,1028.3693989117512
2024-05-09T04:03:07.473Z,1028.3726785277602
2024-05-09T04:06:33.914Z,1028.3819126349583
2024-05-09T04:09:54.923Z,1028.4169490581178
2024-05-09T04:13:15.952Z,1028.4217022361768
2024-05-09T04:16:37.009Z,1028.4269921527555
2024-05-09T04:19:57.202Z,1028.4237067975773
2024-05-09T04:26:23.222Z,1028.4059728496484
2024-05-09T04:29:44.440Z,1028.4000768243843
2024-05-09T04:33:05.655Z,1028.4260368534497
2024-05-09T04:36:26.237Z,1028.4604965431938
2024-05-09T04:39:47.562Z,1028.5091790757897
2024-05-09T04:43:11.606Z,1028.5317032433747
2024-05-09T04:46:31.235Z,1028.5445397495487
2024-05-09T04:50:39.299Z,1028.520617092166
2024-05-09T04:54:01.216Z,1028.5183336141422
2024-05-09T04:58:40.895Z,1028.508979084819
2024-05-09T05:02:01.876Z,1028.5331602141662
2024-05-09T05:08:34.111Z,1028.5529546579617
2024-05-09T05:11:55.215Z,1028.57827540568
2024-05-09T05:15:15.808Z,1028.57205550404
2024-05-09T05:18:36.136Z,1028.5815593858028
2024-05-09T05:24:14.513Z,1028.5940066748708
2024-05-09T05:27:34.656Z,1028.6055605465676
2024-05-09T05:32:56.544Z,1028.6165438275777
2024-05-09T05:36:17.514Z,1028.6020213551467
2024-05-09T05:39:39.097Z,1028.6121435075675
2024-05-09T05:42:59.415Z,1028.6118061580103
2024-05-09T05:46:19.987Z,1028.636913003703
2024-05-09T05:58:12.994Z,1028.6615267196892
2024-05-09T06:10:09.256Z,1028.6905889309446
2024-05-09T06:13:36.688Z,1028.7033790081168
2024-05-09T06:16:58.430Z,1028.6827628402632
2024-05-09T06:20:24.063Z,1028.683221500152
2024-05-09T06:23:53.390Z,1028.664554589316
2024-05-09T06:27:14.096Z,1028.665784559133
2024-05-09T06:30:39.505Z,1028.65180664108
2024-05-09T06:34:02.400Z,1028.6268984065962
2024-05-09T06:37:23.415Z,1028.6238197492278
2024-05-09T06:40:45.028Z,1028.632407664654
2024-05-09T06:46:06.055Z,1028.6856669887318
2024-05-09T06:49:26.905Z,1028.7510843336163
2024-05-09T06:52:49.271Z,1028.796652873798
2024-05-09T06:56:09.413Z,1028.811900408486
2024-05-09T06:59:30.251Z,1028.8286063085352
2024-05-09T07:04:28.310Z,1028.8206284624325
2024-05-09T07:11:00.077Z,1028.7940789904526
2024-05-09T07:14:22.107Z,1028.7863956611434
2024-05-09T07:17:42.726Z,1028.800665162856
2024-05-09T07:21:03.639Z,1028.8219305995199
2024-05-09T07:27:09.019Z,1028.785058764178
2024-05-09T07:32:48.325Z,1028.8051798943934
2024-05-09T07:36:10.261Z,1028.8088141001722
2024-05-09T07:41:17.231Z,1028.834154654562
2024-05-09T07:44:48.594Z,1028.8481086125746
2024-05-09T07:53:08.886Z,1028.862630141804
2024-05-09T07:56:58.101Z,1028.846112906106
2024-05-09T08:00:23.717Z,1028.8586257859602
2024-05-09T08:06:49.387Z,1028.8435071325173
2024-05-09T08:10:12.891Z,1028.8299394719782
2024-05-09T08:13:35.493Z,1028.8002566985228
2024-05-09T08:19:03.998Z,1028.740781370845
2024-05-09T08:24:48.949Z,1028.7155859426564
2024-05-09T08:28:42.015Z,1028.6954884746222
2024-05-09T08:32:02.773Z,1028.672534509228
2024-05-09T08:38:49.286Z,1028.6635902053297
2024-05-09T08:46:25.886Z,1028.6525814973236
2024-05-09T08:53:15.589Z,1028.6802435112747
2024-05-09T08:56:36.695Z,1028.675989564652
2024-05-09T08:59:59.132Z,1028.6372095675383
2024-05-09T09:05:08.744Z,1028.6071041666967
2024-05-09T09:08:30.035Z,1028.576665633268
2024-05-09T09:11:50.401Z,1028.54958434821
2024-05-09T09:15:10.447Z,1028.5632726016277
2024-05-09T09:18:31.181Z,1028.57574396515
2024-05-09T09:27:14.739Z,1028.5258484728467
2024-05-09T09:39:21.609Z,1028.48694357958
2024-05-09T09:42:42.323Z,1028.50693146175
2024-05-09T09:48:58.449Z,1028.4731314546236
2024-05-09T09:56:21.155Z,1028.4692852716407
2024-05-09T09:59:42.165Z,1028.441996410616
2024-05-09T10:03:02.559Z,1028.42979999239
2024-05-09T10:06:23.186Z,1028.4145899507905
2024-05-09T10:09:44.175Z,1028.3802689464417
2024-05-09T10:13:04.420Z,1028.3342804453707
2024-05-09T10:16:24.158Z,1028.3093020394585
2024-05-09T10:23:57.015Z,1028.2995825026744
2024-05-09T10:27:17.392Z,1028.2736320490392
2024-05-09T10:30:39.415Z,1028.2656218690986
2024-05-09T10:34:01.152Z,1028.2315296428976
2024-05-09T10:37:22.233Z,1028.2286383705289
2024-05-09T10:40:42.717Z,1028.1965934577781
2024-05-09T10:44:02.627Z,1028.1574465645683
2024-05-09T10:47:22.516Z,1028.1155035057975
2024-05-09T10:50:42.349Z,1028.0694110120075
2024-05-09T10:54:02.315Z,1028.0083350429052
2024-05-09T10:57:22.807Z,1027.9857662433174
2024-05-09T11:02:23.730Z,1027.9312525943797
2024-05-09T11:05:45.280Z,1027.9211673318123
2024-05-09T11:09:05.595Z,1027.8861660806342
2024-05-09T11:12:26.395Z,1027.8602264141937
2024-05-09T11:15:47.732Z,1027.8376355824532
2024-05-09T11:19:09.021Z,1027.8013804524767
2024-05-09T11:24:47.469Z,1027.7530225885264
2024-05-09T11:28:08.030Z,1027.7202471696287
2024-05-09T11:31:29.036Z,1027.6988235072902
2024-05-09T11:39:16.624Z,1027.5457380617217
2024-05-09T11:42:37.752Z,1027.5000047596088
2024-05-09T11:48:00.965Z,1027.5081785945163
2024-05-09T11:51:21.165Z,1027.4957477521336
2024-05-09T11:54:41.268Z,1027.494526578761
2024-05-09T11:58:01.242Z,1027.4964609901908
2024-05-09T12:01:25.067Z,1027.4564954999582
2024-05-09T12:04:47.166Z,1027.3917554609468
2024-05-09T12:08:07.577Z,1027.3855571155023
2024-05-09T12:11:27.572Z,1027.3597516504271
2024-05-09T12:14:48.067Z,1027.3351515912118
2024-05-09T12:23:15.956Z,1027.2912943306658
2024-05-09T12:26:37.599Z,1027.2631848296471
2024-05-09T12:29:57.734Z,1027.2285250803232
2024-05-09T12:33:18.276Z,1027.178076058433
2024-05-09T12:36:39.566Z,1027.1582635526834
2024-05-09T12:40:00.647Z,1027.1006843823639
2024-05-09T12:45:16.535Z,1027.0426812025514
2024-05-09T12:48:37.192Z,1027.0117709811475
2024-05-09T12:56:14.642Z,1026.923798508284
2024-05-09T12:59:35.902Z,1026.8435705425586
2024-05-09T13:02:57.337Z,1026.8389858108746
2024-05-09T13:06:17.382Z,1026.801383513701
2024-05-09T13:09:38.990Z,1026.7851237770615
2024-05-09T13:13:02.052Z,1026.774319857846
2024-05-09T13:16:22.683Z,1026.742660086885
2024-05-09T13:19:44.387Z,1026.7277877739302
2024-05-09T13:23:05.562Z,1026.7409098529147
2024-05-09T13:26:31.960Z,1026.7079846412466
2024-05-09T13:31:23.146Z,1026.6786426537437
2024-05-09T13:34:47.776Z,1026.6447554620122
2024-05-09T13:38:10.405Z,1026.647728620465
2024-05-09T13:45:51.067Z,1026.554432144703
2024-05-09T13:49:12.934Z,1026.5074613348784
2024-05-09T13:52:42.134Z,1026.4534991931127
2024-05-09T13:56:44.726Z,1026.4231951456607
2024-05-09T14:00:37.932Z,1026.3666177722723
2024-05-09T14:07:11.054Z,1026.28121627295
2024-05-09T14:10:36.273Z,1026.195284381748
2024-05-09T14:13:58.995Z,1026.1625408188636
2024-05-09T14:17:20.366Z,1026.1786039667088
2024-05-09T14:23:54.553Z,1026.1486319880407
2024-05-09T14:29:59.609Z,1026.115458203052
2024-05-09T14:33:20.747Z,1026.1078720409544
2024-05-09T14:36:42.037Z,1026.0435851831578
2024-05-09T14:40:02.952Z,1026.0078841125178
2024-05-09T14:43:24.648Z,1026.0189804218376
2024-05-09T14:46:46.638Z,1025.9810335705968
2024-05-09T14:50:06.999Z,1025.964945212933
2024-05-09T14:53:29.252Z,1025.9384997538768
2024-05-09T14:56:50.041Z,1025.9080812097186
2024-05-09T15:02:46.627Z,1025.9181417197779
2024-05-09T15:06:11.357Z,1025.8661191375784
2024-05-09T15:17:53.564Z,1025.7607600527401
2024-05-09T15:21:14.546Z,1025.6981099300672
2024-05-09T15:24:38.897Z,1025.6602997291895
2024-05-09T15:28:05.271Z,1025.6178008839952
2024-05-09T15:34:43.688Z,1025.5466153159543
2024-05-09T15:38:46.580Z,1025.5234593674647
2024-05-09T15:43:05.700Z,1025.5039218135728
2024-05-09T15:46:27.676Z,1025.4845814626658
2024-05-09T15:49:49.775Z,1025.4774733008167
2024-05-09T15:54:54.453Z,1025.4883321531865
2024-05-09T15:58:16.283Z,1025.4715673411663
2024-05-09T16:01:37.855Z,1025.4778605614993
2024-05-09T16:08:00.090Z,1025.439195897371
2024-05-09T16:11:21.211Z,1025.4248531126348
2024-05-09T16:14:42.303Z,1025.4295519217999
2024-05-09T16:18:31.910Z,1025.408265981724
2024-05-09T16:26:55.849Z,1025.3300332955332
2024-05-09T16:30:31.463Z,1025.2853022623312
2024-05-09T16:34:00.745Z,1025.2687114683213
2024-05-09T16:37:21.949Z,1025.2535958069375
2024-05-09T16:40:43.431Z,1025.2890533010698
2024-05-09T16:46:33.335Z,1025.3086040334208
2024-05-09T16:50:05.144Z,1025.3267836289856
2024-05-09T16:53:25.843Z,1025.3559455552484
2024-05-09T16:56:48.105Z,1025.3429051194096
2024-05-09T17:00:18.101Z,1025.3400136900896
2024-05-09T17:06:35.491Z,1025.3513663732513
2024-05-09T17:10:26.697Z,1025.3495936091917
2024-05-09T17:13:53.403Z,1025.3355859483204
2024-05-09T17:17:14.218Z,1025.311455188228
2024-05-09T17:20:54.572Z,1025.3118180588372
2024-05-09T17:24:15.693Z,1025.3363116257103
2024-05-09T17:30:46.460Z,1025.4063684718828
2024-05-09T17:34:32.856Z,1025.3963933540042
2024-05-09T17:37:55.401Z,1025.3711127641423
2024-05-09T17:41:15.779Z,1025.3657500627908
2024-05-09T17:44:37.364Z,1025.3904720525356
2024-05-09T17:48:47.006Z,1025.3979515436895
2024-05-09T17:52:06.898Z,1025.4097882903375
2024-05-09T17:55:27.015Z,1025.4122660553203
2024-05-09T17:58:47.982Z,1025.4175391991546
2024-05-09T18:02:09.499Z,1025.423001733037
2024-05-09T18:11:01.978Z,1025.4417143777212
2024-05-09T18:14:23.616Z,1025.4533138009804
2024-05-09T18:17:45.095Z,1025.426218974172
2024-05-09T18:21:05.457Z,1025.4031191976158
2024-05-09T18:24:26.582Z,1025.3991381803726
2024-05-09T18:27:48.563Z,1025.385526366529
2024-05-09T18:31:10.237Z,1025.3856760884096
2024-05-09T18:34:31.391Z,1025.4158323273489
2024-05-09T18:37:53.775Z,1025.4257058068918
2024-05-09T18:41:16.196Z,1025.4198572956354
2024-05-09T18:45:59.716Z,1025.4318376119481
2024-05-09T18:49:24.342Z,1025.443519475473
2024-05-09T18:52:45.838Z,1025.4658791073318
2024-05-09T18:56:57.570Z,1025.5350307439423
2024-05-09T19:00:31.014Z,1025.568978895534
2024-05-09T19:03:56.091Z,1025.5890343827828
2024-05-09T19:07:25.189Z,1025.5935788833572
2024-05-09T19:10:46.795Z,1025.6151438165086
2024-05-09T19:14:08.151Z,1025.621403366694
2024-05-09T19:17:29.636Z,1025.6387495046638
2024-05-09T19:22:17.097Z,1025.6533627957867
2024-05-09T19:25:37.821Z,1025.671247501943
2024-05-09T19:28:57.877Z,1025.7218582294297
2024-05-09T19:32:18.942Z,1025.7217840549174
2024-05-09T19:37:30.053Z,1025.7508110073318
2024-05-09T19:40:51.035Z,1025.7835163279035
2024-05-09T19:44:11.498Z,1025.8401140984863
2024-05-09T19:47:38.964Z,1025.862424698877
2024-05-09T19:53:34.337Z,1025.881398017917
2024-05-09T19:56:54.655Z,1025.8610025157652
2024-05-09T20:00:21.857Z,1025.8403979061577
2024-05-09T20:03:47.406Z,1025.8214226416342
2024-05-09T20:08:28.591Z,1025.9402894385364
2024-05-09T20:11:49.424Z,1025.972635490301
2024-05-09T20:16:30.844Z,1025.9420218075936
2024-05-09T20:19:51.458Z,1025.9151974546714
2024-05-09T20:23:11.723Z,1025.944606698071
2024-05-09T20:26:31.262Z,1025.9668010606026
2024-05-09T20:29:56.584Z,1026.0108010021977
2024-05-09T20:33:16.257Z,1026.0388489089783
2024-05-09T20:36:36.564Z,1026.0477623121276
2024-05-09T20:39:57.311Z,1026.048951532457
2024-05-09T20:43:18.405Z,1026.0307368555948
2024-05-09T20:46:48.133Z,1026.0391014517081
2024-05-09T20:50:34.961Z,1026.0107471439344
2024-05-09T20:54:05.042Z,1026.0172144186943
2024-05-09T20:59:08.530Z,1026.019147579837
2024-05-09T21:02:33.006Z,1026.0074678954086
2024-05-09T21:09:05.772Z,1025.9565374538643
2024-05-09T21:12:35.484Z,1025.9694334205285
2024-05-09T21:16:11.314Z,1025.9915000132562
2024-05-09T21:22:37.397Z,1025.9752829558322
2024-05-09T21:26:13.705Z,1025.9553084828422
2024-05-09T21:29:37.751Z,1025.9428787465822
2024-05-09T21:32:57.751Z,1025.9360724181952
2024-05-09T21:36:17.762Z,1025.9208978330314
2024-05-09T21:59:14.076Z,1025.794619929395
2024-05-09T22:02:34.448Z,1025.7370644267994
2024-05-09T22:05:54.936Z,1025.66998180361
2024-05-09T22:09:14.587Z,1025.6219808830829
2024-05-09T22:12:36.224Z,1025.5856265776742
2024-05-09T22:15:56.591Z,1025.586249011403
2024-05-09T22:19:16.638Z,1025.5760369758182
2024-05-09T22:22:36.575Z,1025.5429870337712
2024-05-09T22:25:56.929Z,1025.5361439884584
2024-05-09T22:29:17.220Z,1025.5579227464655
2024-05-09T22:34:19.967Z,1025.541572459187
2024-05-09T22:37:41.346Z,1025.5276299082846
2024-05-09T22:45:31.515Z,1025.4487427590389
2024-05-09T22:48:51.487Z,1025.4710977927155
2024-05-09T23:10:16.573Z,1025.5082978175496
2024-05-09T23:13:40.999Z,1025.5003280418293
2024-05-09T23:17:00.709Z,1025.5079636874402
2024-05-09T23:23:42.190Z,1025.5384056511955
2024-05-09T23:27:02.148Z,1025.5380990135363
2024-05-09T23:30:36.431Z,1025.5411296364782
2024-05-09T23:33:59.507Z,1025.534166679629
2024-05-09T23:37:20.064Z,1025.5318024228718
2024-05-09T23:44:26.364Z,1025.4999508616015
2024-05-09T23:55:28.029Z,1025.4919954644477
2024-05-09T23:58:48.890Z,1025.467850105969
